Jesenik, Czech Republic
Current Conditions -  °F | °C
As of 4:30 PM on Sunday 23 Nov 2014 (Local Time) from LKMT Reporting Station
Few Clouds Few Clouds  
Wind Chill: 36°   Ceiling: Unl
Heat Index: 41°   Visibility: 6mi
Dew Point: 34°   Wind: 8mph
Humidity: 76%   Direction: 230°SW
Pressure: 30.36"   Gusts: NA
Location:  50.23°N, 17.2°E
Report Text: LKMT 231430Z 23007KT 9999 FEW030 05/01 Q1028 NOSIG
Loading
Personal Weather Stations






























Interactive Weather Map New forecast layout! Learn more

10-Day Weather Forecast

Advertisements
Track Severe Weather on mobile